»·PEaware :: N149CD KHII-KTRM

N149CD :: KHII-KTRM

FLIGHT INFORMATION

Flight Status: Arrived
Operator: Privately registered:
United States
More flights under this callsign
Pilot: Nathan E. (30132)
Aircraft: CESSNA 172 SKYHAWK
(C172)
More flights by this aircraft type
Origin: KHII Lake Havasu City
United States
Destination: KTRM Desert Resorts Regl
United States
More flights between these airports :: More routes between these airports
Route: +PKE V264 TNP V514 TRM
File this flight plan on PilotEdge
Remarks:
Altitude:
(Current/Filed)
6,000ft
Speed:
(Current/Filed)
110kts
Departed: 20-Oct-20 12:51 PM
Arrived: 20-Oct-20 02:11 PM
Distance/Time
Traveled:
106nm/1:19
Distance/Time
To Go:
Arrived

Flight Plot

Page will automatically refresh every two minutes.

Flight plan parsing failed; only flown route is shown


Map Options




Map Legend


Flown Route
Filed Route
Departure Airport
Arrival Airport
Navaid (VOR, NDB)
Fix

Horizontal Profiles

Position Reports

Time Latitude Longitude Heading Altitude Ground
Speed
20-Oct-20 12:38 34.561137 -114.352855 59 768ft 0kts
20-Oct-20 12:39 34.561137 -114.352855 59 768ft 0kts
20-Oct-20 12:40 34.561137 -114.352855 59 768ft 0kts
20-Oct-20 12:41 34.561137 -114.352855 59 768ft 0kts
20-Oct-20 12:42 34.561137 -114.352855 59 768ft 0kts
20-Oct-20 12:43 34.561137 -114.352855 59 768ft 0kts
20-Oct-20 12:44 34.561137 -114.352855 59 768ft 0kts
20-Oct-20 12:45 34.561137 -114.352855 59 768ft 0kts
20-Oct-20 12:46 34.561137 -114.352855 59 768ft 0kts
20-Oct-20 12:47 34.561137 -114.352855 59 768ft 0kts
20-Oct-20 12:48 34.561137 -114.352855 59 768ft 0kts
20-Oct-20 12:49 34.561860 -114.351724 329 781ft 0kts
20-Oct-20 12:50 34.571836 -114.358529 330 1006ft 78kts
20-Oct-20 12:51 34.588087 -114.373109 300 1971ft 74kts
20-Oct-20 12:52 34.598858 -114.394596 300 2860ft 75kts
20-Oct-20 12:53 34.609823 -114.416452 301 3701ft 76kts
20-Oct-20 12:54 34.627983 -114.430347 331 4495ft 78kts
20-Oct-20 12:55 34.648221 -114.440421 337 5241ft 80kts
20-Oct-20 12:56 34.659761 -114.445771 325 5639ft 79kts
20-Oct-20 12:58 34.691240 -114.458069 346 6639ft 82kts
20-Oct-20 12:59 34.702656 -114.460560 346 6959ft 82kts
20-Oct-20 13:00 34.702174 -114.478027 199 7550ft 86kts
20-Oct-20 13:01 34.678720 -114.485776 198 8028ft 97kts
20-Oct-20 13:02 34.648995 -114.495873 197 8021ft 116kts
20-Oct-20 13:03 34.618176 -114.506399 197 8016ft 114kts
20-Oct-20 13:04 34.587442 -114.516909 197 8011ft 114kts
20-Oct-20 13:05 34.556817 -114.527380 197 8006ft 114kts
20-Oct-20 13:06 34.526182 -114.537846 197 8008ft 114kts
20-Oct-20 13:07 34.495474 -114.548331 197 8009ft 114kts
20-Oct-20 13:08 34.464786 -114.558801 197 8011ft 114kts
20-Oct-20 13:09 34.434104 -114.569262 197 8012ft 114kts
20-Oct-20 13:10 34.403330 -114.579745 197 8014ft 114kts
20-Oct-20 13:11 34.372656 -114.590186 197 8013ft 114kts
20-Oct-20 13:12 34.341918 -114.600645 197 8011ft 114kts
20-Oct-20 13:13 34.311168 -114.611098 197 8008ft 114kts
20-Oct-20 13:14 34.280379 -114.621556 197 8005ft 114kts
20-Oct-20 13:15 34.249751 -114.631951 197 8001ft 114kts
20-Oct-20 13:16 34.218942 -114.642398 197 7999ft 114kts
20-Oct-20 13:17 34.188281 -114.652787 196 8000ft 115kts
20-Oct-20 13:18 34.157461 -114.663223 196 8000ft 115kts
20-Oct-20 13:19 34.126555 -114.673680 196 8000ft 115kts
20-Oct-20 13:20 34.105387 -114.696627 262 8000ft 113kts
20-Oct-20 13:21 34.103504 -114.734786 268 7974ft 112kts
20-Oct-20 13:22 34.103392 -114.773481 270 7477ft 118kts
20-Oct-20 13:23 34.103743 -114.813358 270 6977ft 118kts
20-Oct-20 13:24 34.104206 -114.853288 271 6476ft 118kts
20-Oct-20 13:25 34.104690 -114.893298 270 5997ft 119kts
20-Oct-20 13:26 34.105136 -114.932472 270 5977ft 115kts
20-Oct-20 13:27 34.105577 -114.971138 270 5978ft 115kts
20-Oct-20 13:28 34.106013 -115.009934 271 5978ft 115kts
20-Oct-20 13:29 34.106438 -115.048446 271 5978ft 114kts
20-Oct-20 13:30 34.106849 -115.086837 271 5978ft 114kts
20-Oct-20 13:31 34.107248 -115.125277 271 5978ft 114kts
20-Oct-20 13:32 34.107634 -115.163507 271 5978ft 113kts
20-Oct-20 13:33 34.108007 -115.201686 271 5979ft 113kts
20-Oct-20 13:34 34.108366 -115.239647 271 5999ft 113kts
20-Oct-20 13:35 34.108716 -115.277791 271 6021ft 113kts
20-Oct-20 13:36 34.109053 -115.315834 271 6043ft 113kts
20-Oct-20 13:37 34.109380 -115.354041 271 6065ft 113kts
20-Oct-20 13:38 34.109694 -115.392193 271 6087ft 113kts
20-Oct-20 13:39 34.109998 -115.430567 271 6110ft 113kts
20-Oct-20 13:40 34.110291 -115.468888 271 6119ft 114kts
20-Oct-20 13:41 34.110572 -115.507273 271 6118ft 114kts
20-Oct-20 13:42 34.110842 -115.545881 271 6118ft 114kts
20-Oct-20 13:43 34.111100 -115.584485 271 6118ft 114kts
20-Oct-20 13:44 34.111347 -115.623022 271 6118ft 114kts
20-Oct-20 13:45 34.111581 -115.661549 270 6119ft 114kts
20-Oct-20 13:46 34.111802 -115.700022 270 6119ft 114kts
20-Oct-20 13:47 34.112013 -115.738547 270 6119ft 114kts
20-Oct-20 13:48 34.103233 -115.773309 221 6119ft 116kts
20-Oct-20 13:49 34.077432 -115.797081 216 6118ft 117kts
20-Oct-20 13:50 34.050450 -115.819684 215 6086ft 118kts
20-Oct-20 13:51 34.023161 -115.842009 215 6052ft 118kts
20-Oct-20 13:52 33.995698 -115.864305 215 6018ft 119kts
20-Oct-20 13:53 33.968289 -115.886548 211 5982ft 116kts
20-Oct-20 13:54 33.942033 -115.907691 211 6029ft 112kts
20-Oct-20 13:55 33.915757 -115.928908 211 6000ft 112kts
20-Oct-20 13:56 33.889841 -115.949823 211 6000ft 112kts
20-Oct-20 13:57 33.863948 -115.970706 211 6000ft 112kts
20-Oct-20 13:58 33.837976 -115.991638 211 6000ft 112kts
20-Oct-20 13:59 33.812039 -116.012526 211 6000ft 112kts
20-Oct-20 14:00 33.786114 -116.033378 211 6000ft 112kts
20-Oct-20 14:01 33.760033 -116.054341 212 5690ft 116kts
20-Oct-20 14:02 33.733084 -116.076028 211 4690ft 117kts
20-Oct-20 14:03 33.705921 -116.097829 211 3692ft 118kts
20-Oct-20 14:04 33.678758 -116.119871 210 2694ft 119kts
20-Oct-20 14:05 33.651448 -116.142297 208 1693ft 119kts
20-Oct-20 14:06 33.626686 -116.167091 220 1501ft 121kts
20-Oct-20 14:07 33.625289 -116.185817 71 975ft 111kts
20-Oct-20 14:08 33.609070 -116.162054 122 803ft 80kts
20-Oct-20 14:09 33.623419 -116.162896 315 -113ft 42kts
20-Oct-20 14:10 33.627115 -116.166204 314 -110ft 16kts
20-Oct-20 14:12 33.630875 -116.170699 316 -105ft 13kts
20-Oct-20 14:13 33.634137 -116.169070 89 -104ft 19kts
20-Oct-20 14:14 33.634543 -116.164980 87 -107ft 0kts

Navigation Log

Ident Type
Flight plan parsing failed, navigation log unavailable